Time;durP1;ratioP1;P1;durP2;ratioP2;P2;SDS_P1;SDS_P2;PMS_P1;PMS_P2;Temp;Humidity;BMP_temperature;BMP_pressure;BME280_temperature;BME280_humidity;BME280_pressure;Samples;Min_cycle;Max_cycle;Signal;HPM_P1;HPM_P2
2023/02/13 00:02:09;;;;;;;0.10;0.10;;;;;;;9.52;63.51;103869.13;5093767;28;20024;-78
2023/02/13 00:04:35;;;;;;;0.20;0.20;;;;;;;9.57;63.16;103861.34;5097055;28;20028;-76
2023/02/13 00:07:01;;;;;;;0.30;0.30;;;;;;;9.50;63.04;103858.50;5090402;28;20031;-79
2023/02/13 00:09:27;;;;;;;1.48;1.48;;;;;;;9.49;63.58;103856.69;5094650;28;20549;-80
2023/02/13 00:11:53;;;;;;;0.10;0.10;;;;;;;9.49;63.15;103861.09;5088527;28;20024;-79
2023/02/13 00:14:20;;;;;;;0.15;0.15;;;;;;;9.47;63.31;103857.50;5086016;28;20103;-79
2023/02/13 00:16:46;;;;;;;1.15;1.15;;;;;;;9.48;63.51;103854.00;5092359;28;20036;-80
2023/02/13 00:19:12;;;;;;;3.20;0.43;;;;;;;9.47;63.72;103855.75;5096192;28;20492;-80
2023/02/13 00:21:38;;;;;;;0.10;0.10;;;;;;;9.47;63.62;103857.50;5097630;28;20028;-80
2023/02/13 00:24:04;;;;;;;0.10;0.10;;;;;;;9.53;63.46;103853.31;5089553;28;20481;-81
2023/02/13 00:26:31;;;;;;;0.03;0.03;;;;;;;9.48;63.77;103854.00;5089297;28;20123;-78
2023/02/13 00:28:57;;;;;;;0.10;0.10;;;;;;;9.47;63.79;103852.19;5094706;28;20058;-81
2023/02/13 00:31:23;;;;;;;0.10;0.10;;;;;;;9.47;63.91;103849.53;5089415;28;20050;-79
2023/02/13 00:33:49;;;;;;;0.25;0.25;;;;;;;9.47;63.54;103846.91;5101024;28;20028;-80
2023/02/13 00:36:19;;;;;;;0.47;0.47;;;;;;;9.47;63.79;103847.81;5084993;28;20610;-77
2023/02/13 00:38:46;;;;;;;0.32;0.32;;;;;;;9.47;63.90;103846.91;5092591;28;20040;-78
2023/02/13 00:41:13;;;;;;;0.10;0.10;;;;;;;9.48;63.60;103846.06;5098906;28;20032;-78
2023/02/13 00:43:39;;;;;;;0.77;0.77;;;;;;;9.49;63.95;103855.81;5104755;28;20058;-78
2023/02/13 00:46:09;;;;;;;0.20;0.20;;;;;;;9.51;63.51;103843.53;5100490;28;20512;-79
2023/02/13 00:48:36;;;;;;;0.20;0.20;;;;;;;9.49;63.48;103845.22;5089498;28;20493;-78
2023/02/13 00:51:03;;;;;;;0.10;0.10;;;;;;;9.49;63.74;103855.81;5092034;28;20039;-79
2023/02/13 00:53:30;;;;;;;0.30;0.30;;;;;;;9.49;63.83;103851.41;5088830;28;20044;-77
2023/02/13 00:55:57;;;;;;;0.10;0.10;;;;;;;9.49;63.59;103845.22;5090729;28;20032;-79
2023/02/13 00:58:24;;;;;;;1.55;0.63;;;;;;;9.49;63.88;103846.09;5085797;28;20036;-78
2023/02/13 01:00:52;;;;;;;0.30;0.30;;;;;;;9.50;63.91;103839.97;5090617;28;20043;-77
2023/02/13 01:03:19;;;;;;;0.20;0.20;;;;;;;9.50;63.50;103841.72;5087059;28;20032;-78
2023/02/13 01:05:46;;;;;;;0.10;0.10;;;;;;;9.50;63.69;103839.09;5090301;28;20032;-79
2023/02/13 01:08:14;;;;;;;0.60;0.60;;;;;;;9.49;63.60;103835.50;5086526;28;20039;-78
2023/02/13 01:10:42;;;;;;;0.10;0.10;;;;;;;9.49;63.75;103842.56;5089030;28;20039;-77
2023/02/13 01:13:10;;;;;;;0.10;0.10;;;;;;;9.49;63.75;103829.34;5091865;28;20056;-78
2023/02/13 01:15:39;;;;;;;0.20;0.20;;;;;;;9.48;63.79;103833.75;5094452;28;20024;-78
2023/02/13 01:18:06;;;;;;;0.10;0.10;;;;;;;9.49;63.88;103834.63;5095994;28;20028;-79
2023/02/13 01:20:32;;;;;;;1.35;1.35;;;;;;;9.47;63.86;103821.34;5107444;28;20054;-76
2023/02/13 01:22:59;;;;;;;0.88;0.85;;;;;;;9.48;63.80;103832.81;5105863;28;20069;-76
2023/02/13 01:25:26;;;;;;;0.20;0.20;;;;;;;9.48;63.89;103832.81;5111310;28;20075;-78
2023/02/13 01:27:52;;;;;;;0.17;0.17;;;;;;;9.47;63.91;103825.72;5107662;28;20436;-79
2023/02/13 01:30:19;;;;;;;0.63;0.63;;;;;;;9.47;63.97;103824.00;5097082;28;20090;-79
2023/02/13 01:32:46;;;;;;;0.10;0.10;;;;;;;9.48;63.83;103825.81;5080669;28;20083;-79
2023/02/13 01:35:14;;;;;;;0.10;0.10;;;;;;;9.49;63.97;103822.28;5097982;28;20061;-77
2023/02/13 01:37:41;;;;;;;0.73;0.73;;;;;;;9.47;63.92;103820.44;5099529;28;20218;-81
2023/02/13 01:40:12;;;;;;;0.68;0.68;;;;;;;9.49;63.62;103805.50;5096006;28;20051;-78
2023/02/13 01:42:38;;;;;;;1.33;1.33;;;;;;;9.45;63.81;103816.88;5096066;28;20035;-78
2023/02/13 01:45:27;;;;;;;0.40;0.40;;;;;;;9.43;63.97;103818.53;5088090;28;20056;-79
2023/02/13 01:48:08;;;;;;;1.13;1.13;;;;;;;9.43;64.27;103818.53;5088537;28;20051;-80
2023/02/13 01:50:41;;;;;;;0.27;0.27;;;;;;;9.37;63.92;103819.22;5092363;28;20021;-79
2023/02/13 01:53:36;;;;;;;0.22;0.22;;;;;;;9.39;64.14;103813.16;5092604;28;20081;-78
2023/02/13 01:56:16;;;;;;;0.25;0.25;;;;;;;9.37;64.08;103817.50;5091612;28;20047;-81
2023/02/13 01:58:46;;;;;;;0.10;0.10;;;;;;;9.36;64.16;103815.69;5091170;28;20455;-78
2023/02/13 02:01:12;;;;;;;0.10;0.10;;;;;;;9.37;64.23;103817.50;5092552;28;20096;-78
2023/02/13 02:03:55;;;;;;;1.50;0.85;;;;;;;9.43;64.48;103819.44;5105139;28;20028;-77
2023/02/13 02:06:27;;;;;;;0.20;0.20;;;;;;;9.42;63.86;103816.75;5099149;28;20112;-78
2023/02/13 02:08:59;;;;;;;0.20;0.20;;;;;;;9.38;64.23;103821.94;5096659;28;20092;-79
2023/02/13 02:11:50;;;;;;;0.30;0.30;;;;;;;9.44;64.09;103820.34;5095592;28;20055;-80
2023/02/13 02:14:17;;;;;;;0.95;0.95;;;;;;;9.38;64.29;103821.94;5092791;28;20028;-79
2023/02/13 02:16:43;;;;;;;0.20;0.20;;;;;;;9.39;64.20;103817.53;5090392;28;20051;-81
2023/02/13 02:19:25;;;;;;;0.30;0.30;;;;;;;9.43;64.07;103823.84;5087934;28;20023;-80
2023/02/13 02:22:09;;;;;;;8.85;1.75;;;;;;;9.47;64.58;103815.13;5090966;28;20043;-78
2023/02/13 02:25:00;;;;;;;0.20;0.20;;;;;;;9.48;64.15;103823.16;5087067;28;20024;-78
2023/02/13 02:36:39;;;;;;;0.80;0.80;;;;;;;9.48;64.42;103811.66;5056839;28;20923;-80
2023/02/13 02:39:40;;;;;;;1.95;1.85;;;;;;;9.47;64.33;103804.56;5057249;28;20065;-80
2023/02/13 02:44:55;;;;;;;0.28;0.28;;;;;;;9.45;64.29;103795.69;5099133;27;20412;-81
2023/02/13 02:50:50;;;;;;;0.20;0.20;;;;;;;9.48;63.91;103795.78;5092849;28;20498;-79
2023/02/13 03:07:15;;;;;;;0.47;0.47;;;;;;;9.49;64.17;103792.28;5128699;27;20034;-78
2023/02/13 03:15:28;;;;;;;0.20;0.20;;;;;;;9.47;64.29;103791.31;5131392;27;20039;-79
2023/02/13 03:24:03;;;;;;;0.30;0.30;;;;;;;9.49;64.18;103792.28;5143978;27;20045;-79
2023/02/13 03:26:49;;;;;;;0.52;0.52;;;;;;;9.50;64.29;103789.69;5141834;27;20028;-77
2023/02/13 03:38:18;;;;;;;0.30;0.30;;;;;;;9.49;63.85;103786.97;5049507;28;20406;-79
2023/02/13 03:41:24;;;;;;;0.13;0.13;;;;;;;9.48;64.45;103791.41;5048729;28;20112;-80
2023/02/13 03:46:30;;;;;;;0.45;0.45;;;;;;;9.45;64.05;103787.75;5060487;27;20423;-78
2023/02/13 03:52:07;;;;;;;0.55;0.55;;;;;;;9.49;64.20;103786.97;5044364;27;20045;-80
2023/02/13 04:00:03;;;;;;;0.43;0.40;;;;;;;9.37;64.66;103783.09;5148576;27;20047;-80
2023/02/13 04:02:36;;;;;;;0.20;0.20;;;;;;;9.35;64.12;103782.13;5153378;27;20030;-79
2023/02/13 04:05:19;;;;;;;0.10;0.10;;;;;;;9.36;64.52;103775.13;5151463;27;20032;-78
2023/02/13 04:07:45;;;;;;;0.20;0.20;;;;;;;9.32;64.25;103770.56;5149512;27;20042;-80
2023/02/13 04:10:14;;;;;;;0.80;0.77;;;;;;;9.29;64.35;103766.06;5149577;27;20025;-79
2023/02/13 04:12:49;;;;;;;0.57;0.40;;;;;;;9.30;64.44;103774.91;5152137;27;20479;-79
2023/02/13 04:15:25;;;;;;;0.10;0.10;;;;;;;9.29;64.27;103767.81;5151072;27;20030;-78
2023/02/13 04:18:06;;;;;;;0.10;0.10;;;;;;;9.27;64.39;103770.44;5152440;27;20018;-78
2023/02/13 04:20:33;;;;;;;1.20;1.08;;;;;;;9.20;64.34;103768.44;5153166;27;20031;-80
2023/02/13 04:23:08;;;;;;;0.88;0.88;;;;;;;9.21;64.54;103760.53;5164126;27;20122;-79
2023/02/13 04:25:37;;;;;;;0.10;0.10;;;;;;;9.20;64.63;103773.72;5155085;27;20015;-80
2023/02/13 04:28:04;;;;;;;1.60;1.30;;;;;;;9.20;65.14;103773.72;5156885;27;20479;-79
2023/02/13 04:30:31;;;;;;;0.25;0.25;;;;;;;9.23;64.83;103763.22;5152091;27;20034;-78
2023/02/13 04:32:57;;;;;;;0.10;0.10;;;;;;;9.23;64.96;103773.81;5152197;27;20032;-78
2023/02/13 04:35:23;;;;;;;0.75;0.75;;;;;;;9.24;64.88;103765.03;5143573;27;20376;-80
2023/02/13 04:37:49;;;;;;;0.20;0.20;;;;;;;9.25;65.36;103766.81;5148240;27;20033;-81
2023/02/13 04:40:16;;;;;;;0.20;0.20;;;;;;;9.26;64.71;103767.72;5151267;27;20061;-79
2023/02/13 04:42:42;;;;;;;0.65;0.65;;;;;;;9.24;65.28;103770.31;5139061;27;20022;-77
2023/02/13 04:45:08;;;;;;;0.10;0.10;;;;;;;9.25;65.21;103777.41;5164341;27;20027;-77
2023/02/13 04:47:34;;;;;;;0.40;0.40;;;;;;;9.24;64.99;103778.25;5166378;27;20027;-80
2023/02/13 04:50:00;;;;;;;5.57;1.20;;;;;;;9.23;65.01;103769.44;5154724;27;20058;-80
2023/02/13 04:52:27;;;;;;;0.28;0.28;;;;;;;9.23;64.93;103776.44;5154039;27;20476;-80
2023/02/13 04:54:53;;;;;;;0.28;0.28;;;;;;;9.25;64.67;103765.94;5163244;27;20125;-80
2023/02/13 04:57:19;;;;;;;0.10;0.10;;;;;;;9.24;64.94;103759.72;5154764;27;20051;-79
2023/02/13 04:59:45;;;;;;;0.60;0.60;;;;;;;9.25;64.98;103756.25;5159563;27;20071;-80
2023/02/13 05:02:11;;;;;;;5.13;1.27;;;;;;;9.26;64.92;103752.75;5152319;27;20072;-77
2023/02/13 05:04:37;;;;;;;1.20;1.20;;;;;;;9.26;64.84;103751.84;5155225;27;20027;-77
2023/02/13 05:07:03;;;;;;;0.13;0.13;;;;;;;9.26;64.85;103758.03;5161039;27;20031;-78
2023/02/13 05:09:29;;;;;;;0.40;0.40;;;;;;;9.23;64.60;103750.91;5146645;27;20035;-78
2023/02/13 05:11:55;;;;;;;0.10;0.10;;;;;;;9.26;64.79;103751.84;5128085;27;20038;-80
2023/02/13 05:14:21;;;;;;;0.13;0.13;;;;;;;9.28;64.87;103748.38;5142341;27;20050;-80
2023/02/13 05:16:48;;;;;;;0.20;0.20;;;;;;;9.26;65.07;103742.16;5151013;27;20023;-80
2023/02/13 05:19:15;;;;;;;4.97;0.75;;;;;;;9.26;64.74;103747.47;5143385;27;20023;-79
2023/02/13 05:24:27;;;;;;;0.68;0.68;;;;;;;9.26;65.07;103750.09;5140286;27;20392;-80
2023/02/13 05:26:53;;;;;;;1.52;1.00;;;;;;;9.25;65.28;103748.31;5144421;27;20085;-80
2023/02/13 05:29:21;;;;;;;0.30;0.30;;;;;;;9.25;64.74;103748.31;5150496;27;20021;-79
2023/02/13 05:34:27;;;;;;;0.23;0.23;;;;;;;9.26;65.25;103742.16;5100620;27;1191285;-81
2023/02/13 05:36:54;;;;;;;0.20;0.20;;;;;;;9.26;65.22;103754.47;5129486;28;20060;-79
2023/02/13 05:39:20;;;;;;;0.20;0.20;;;;;;;9.26;65.13;103751.84;5127659;28;20039;-77
2023/02/13 05:41:47;;;;;;;0.30;0.30;;;;;;;9.24;65.17;103749.16;5119896;28;20160;-77
2023/02/13 05:44:13;;;;;;;0.20;0.20;;;;;;;9.25;65.00;103750.94;5102637;28;20035;-79
2023/02/13 05:46:41;;;;;;;0.40;0.40;;;;;;;9.25;65.67;103744.78;5105926;28;20115;-82
2023/02/13 05:49:08;;;;;;;0.10;0.10;;;;;;;9.22;65.91;103745.53;5107594;28;20028;-78
2023/02/13 05:51:34;;;;;;;0.47;0.47;;;;;;;9.21;65.31;103751.72;5103063;28;20314;-80
2023/02/13 05:54:03;;;;;;;0.13;0.13;;;;;;;9.22;65.17;103743.81;5103147;28;20024;-79
2023/02/13 05:56:29;;;;;;;0.20;0.20;;;;;;;9.21;65.41;103757.00;5109371;28;20044;-79
2023/02/13 05:58:56;;;;;;;0.20;0.20;;;;;;;9.20;65.67;103757.84;5103777;28;20032;-80
2023/02/13 06:01:23;;;;;;;4.20;1.05;;;;;;;9.20;65.84;103768.44;5103025;28;20454;-80
2023/02/13 06:03:49;;;;;;;0.10;0.10;;;;;;;9.21;65.32;103759.66;5116866;28;20084;-79
2023/02/13 06:06:16;;;;;;;0.10;0.10;;;;;;;9.20;65.55;103758.72;5118964;28;20028;-78
2023/02/13 06:08:42;;;;;;;0.55;0.35;;;;;;;9.20;65.97;103763.13;5106089;28;20496;-80
2023/02/13 06:11:09;;;;;;;0.93;0.93;;;;;;;9.21;65.93;103770.22;5100178;28;20078;-80
2023/02/13 06:13:39;;;;;;;0.10;0.10;;;;;;;9.21;65.77;103767.59;5102713;28;20032;-81
2023/02/13 06:16:06;;;;;;;0.43;0.43;;;;;;;9.21;65.58;103770.22;5100550;28;20077;-79
2023/02/13 06:18:33;;;;;;;0.10;0.10;;;;;;;9.20;65.70;103755.19;5103152;28;20020;-78
2023/02/13 06:20:59;;;;;;;0.65;0.65;;;;;;;9.19;65.77;103749.00;5098122;28;20037;-79
2023/02/13 06:23:26;;;;;;;0.20;0.20;;;;;;;9.19;65.88;103756.94;5102834;28;20024;-77
2023/02/13 06:25:52;;;;;;;0.20;0.20;;;;;;;9.20;65.74;103750.78;5106944;28;20024;-78
2023/02/13 06:28:18;;;;;;;0.10;0.10;;;;;;;9.20;65.86;103752.56;5100699;28;20443;-80
2023/02/13 06:30:44;;;;;;;0.60;0.60;;;;;;;9.18;65.89;103746.31;5100820;28;20355;-80
2023/02/13 06:33:10;;;;;;;0.28;0.28;;;;;;;9.16;65.80;103748.00;5100583;28;20398;-82
2023/02/13 06:35:36;;;;;;;3.15;0.95;;;;;;;9.12;65.81;103741.72;5103788;28;20069;-80
2023/02/13 06:38:02;;;;;;;0.90;0.90;;;;;;;9.12;65.89;103749.66;5100529;28;20051;-80
2023/02/13 06:40:28;;;;;;;0.20;0.20;;;;;;;9.10;65.61;103746.06;5104641;28;20432;-80
2023/02/13 06:42:55;;;;;;;0.52;0.52;;;;;;;9.09;65.58;103752.19;5099141;28;20020;-81
2023/02/13 06:45:21;;;;;;;0.30;0.30;;;;;;;9.08;65.96;103747.75;5092007;28;20119;-82
2023/02/13 06:47:48;;;;;;;0.60;0.60;;;;;;;9.10;65.79;103755.72;5089321;28;20024;-82
2023/02/13 06:50:16;;;;;;;0.20;0.20;;;;;;;9.07;66.17;103752.16;5087891;28;20043;-80
2023/02/13 06:52:46;;;;;;;0.28;0.28;;;;;;;9.08;65.88;103737.16;5090636;28;20043;-82
2023/02/13 06:55:13;;;;;;;0.30;0.30;;;;;;;9.05;65.71;103753.84;5092909;28;20108;-81
2023/02/13 06:57:40;;;;;;;0.20;0.20;;;;;;;9.05;65.93;103748.53;5096397;28;20039;-78
2023/02/13 07:00:07;;;;;;;0.10;0.10;;;;;;;9.05;65.68;103758.25;5088705;28;20119;-81
2023/02/13 07:02:33;;;;;;;0.20;0.20;;;;;;;9.03;66.23;103763.50;5094529;28;20043;-82
2023/02/13 07:05:00;;;;;;;0.20;0.20;;;;;;;9.02;66.19;103764.31;5089068;28;20016;-78
2023/02/13 07:07:26;;;;;;;0.10;0.10;;;;;;;9.00;66.36;103760.72;5092676;28;20032;-82
2023/02/13 07:09:55;;;;;;;0.17;0.17;;;;;;;9.01;66.11;103770.47;5096754;28;20035;-82
2023/02/13 07:12:21;;;;;;;0.82;0.82;;;;;;;8.98;65.72;103770.34;5095157;28;20089;-83
2023/02/13 07:14:47;;;;;;;0.10;0.10;;;;;;;8.93;66.28;103771.94;5095777;28;20089;-83
2023/02/13 07:17:13;;;;;;;0.20;0.20;;;;;;;8.87;65.75;103777.00;5088933;28;20086;-83
2023/02/13 07:19:39;;;;;;;0.30;0.30;;;;;;;8.79;66.06;103781.16;5091263;28;20061;-82
2023/02/13 07:22:09;;;;;;;0.65;0.65;;;;;;;8.69;66.25;103783.47;5087428;28;20036;-82
2023/02/13 07:24:37;;;;;;;0.40;0.40;;;;;;;8.61;65.57;103787.59;5091407;28;20020;-81
2023/02/13 07:27:04;;;;;;;0.20;0.20;;;;;;;8.51;66.20;103785.44;5085756;28;20028;-81
2023/02/13 07:29:30;;;;;;;0.95;0.95;;;;;;;8.40;65.81;103782.41;5087386;28;20071;-80
2023/02/13 07:31:56;;;;;;;1.35;1.27;;;;;;;8.33;65.78;103786.53;5083082;28;20111;-82
2023/02/13 07:34:22;;;;;;;0.17;0.17;;;;;;;8.25;66.02;103780.09;5087957;28;20116;-80
2023/02/13 07:36:48;;;;;;;0.20;0.20;;;;;;;8.17;66.28;103774.50;5081544;28;20029;-81
2023/02/13 07:39:14;;;;;;;1.08;1.08;;;;;;;8.09;65.67;103782.16;5089777;28;20023;-82
2023/02/13 07:41:40;;;;;;;0.20;0.20;;;;;;;8.03;65.95;103781.91;5102684;28;20028;-81
2023/02/13 07:44:09;;;;;;;1.25;1.20;;;;;;;8.00;65.95;103792.38;5103389;28;20111;-81
2023/02/13 07:46:36;;;;;;;0.10;0.10;;;;;;;7.96;65.86;103790.44;5092269;28;20063;-83
2023/02/13 07:49:03;;;;;;;0.13;0.13;;;;;;;7.92;66.77;103793.81;5085102;28;20458;-82
2023/02/13 07:51:29;;;;;;;0.20;0.20;;;;;;;7.90;66.87;103791.13;5089137;28;20039;-82
2023/02/13 07:53:55;;;;;;;0.10;0.10;;;;;;;7.88;66.42;103794.53;5083692;28;20039;-82
2023/02/13 07:56:21;;;;;;;0.20;0.20;;;;;;;7.85;66.35;103802.31;5092194;28;20025;-83
2023/02/13 07:58:49;;;;;;;0.20;0.20;;;;;;;7.83;66.85;103801.38;5095106;28;20025;-81
2023/02/13 08:01:16;;;;;;;2.05;1.95;;;;;;;7.81;66.96;103811.88;5094057;28;20126;-80
2023/02/13 08:03:42;;;;;;;0.20;0.20;;;;;;;7.78;66.98;103802.09;5102346;28;20020;-79
2023/02/13 08:06:08;;;;;;;0.57;0.57;;;;;;;7.77;66.54;103800.28;5101445;28;20028;-82
2023/02/13 08:08:35;;;;;;;0.20;0.20;;;;;;;7.77;66.95;103800.28;5083952;28;20055;-81
2023/02/13 08:13:55;;;;;;;0.13;0.13;;;;;;;7.78;66.86;103809.13;5086124;28;20082;-82
2023/02/13 08:16:21;;;;;;;0.65;0.65;;;;;;;7.77;67.21;103810.84;5084644;28;20043;-81
2023/02/13 08:18:48;;;;;;;0.10;0.10;;;;;;;7.77;66.63;103818.75;5095571;28;20030;-82
2023/02/13 08:21:14;;;;;;;0.57;0.50;;;;;;;7.77;66.83;103813.47;5091740;28;20028;-81
2023/02/13 08:23:40;;;;;;;0.10;0.10;;;;;;;7.78;67.50;103810.00;5091186;28;20020;-81
2023/02/13 08:26:06;;;;;;;0.10;0.10;;;;;;;7.80;67.21;103806.53;5099398;28;20027;-82
2023/02/13 08:28:32;;;;;;;0.10;0.10;;;;;;;7.80;67.34;103804.81;5105918;28;20032;-81
2023/02/13 08:30:58;;;;;;;0.10;0.10;;;;;;;7.83;67.35;103815.47;5097073;28;20122;-80
2023/02/13 08:33:25;;;;;;;0.47;0.47;;;;;;;7.85;67.77;103813.81;5085761;28;20036;-81
2023/02/13 08:35:51;;;;;;;0.10;0.10;;;;;;;7.88;67.04;103806.00;5085090;28;20118;-82
2023/02/13 08:38:17;;;;;;;1.85;1.75;;;;;;;7.91;67.62;103807.84;5088544;28;20080;-81
2023/02/13 08:40:44;;;;;;;0.10;0.10;;;;;;;7.95;67.24;103809.78;5086931;28;20036;-80
2023/02/13 08:43:10;;;;;;;0.20;0.20;;;;;;;8.01;67.44;103812.66;5080802;28;20016;-83
2023/02/13 08:45:39;;;;;;;0.10;0.10;;;;;;;8.04;67.98;103810.13;5076930;28;20038;-83
2023/02/13 08:48:06;;;;;;;0.20;0.20;;;;;;;8.12;68.17;103818.34;5084791;28;20028;-79
2023/02/13 08:50:32;;;;;;;0.60;0.60;;;;;;;8.15;69.57;103822.84;5095549;28;20043;-79
2023/02/13 08:52:58;;;;;;;3.20;1.50;;;;;;;8.18;69.32;103815.03;5095218;28;20033;-82
2023/02/13 08:55:30;;;;;;;0.20;0.20;;;;;;;8.24;68.57;103823.19;5085864;28;20024;-82
2023/02/13 08:58:00;;;;;;;1.13;1.13;;;;;;;8.30;69.45;103818.16;5084270;28;20024;-82
2023/02/13 09:00:27;;;;;;;0.25;0.25;;;;;;;8.35;68.59;103819.22;5078111;28;20028;-82
2023/02/13 09:02:53;;;;;;;0.77;0.77;;;;;;;8.41;69.08;103816.81;5082580;28;20323;-80
2023/02/13 09:05:20;;;;;;;0.40;0.40;;;;;;;8.45;68.87;103817.81;5097394;28;20040;-80
2023/02/13 09:07:46;;;;;;;0.50;0.50;;;;;;;8.53;68.57;103812.84;5089380;28;20083;-81
2023/02/13 09:10:12;;;;;;;0.10;0.10;;;;;;;8.60;68.63;103812.22;5075910;28;20033;-78
2023/02/13 09:12:38;;;;;;;1.13;1.13;;;;;;;8.67;67.91;103814.25;5078825;28;20393;-80
2023/02/13 09:15:05;;;;;;;1.05;1.05;;;;;;;8.74;68.76;103816.25;5073310;28;20047;-81
2023/02/13 09:17:31;;;;;;;0.43;0.43;;;;;;;8.82;67.98;103816.53;5078246;28;20063;-83
2023/02/13 09:19:57;;;;;;;1.95;1.85;;;;;;;8.90;68.19;103812.38;5075505;28;20025;-83
2023/02/13 09:22:23;;;;;;;0.95;0.95;;;;;;;8.95;68.19;103820.50;5075725;28;20024;-80
2023/02/13 09:24:49;;;;;;;0.75;0.75;;;;;;;8.97;68.03;103817.91;5086020;28;20510;-81
2023/02/13 09:27:15;;;;;;;0.82;0.82;;;;;;;9.02;67.85;103827.81;5091209;28;20494;-81
2023/02/13 09:29:41;;;;;;;0.35;0.35;;;;;;;9.04;67.65;103820.78;5080811;28;20035;-82
2023/02/13 09:32:07;;;;;;;0.55;0.55;;;;;;;9.06;68.22;103829.69;5074872;28;20058;-79
2023/02/13 09:34:33;;;;;;;0.40;0.40;;;;;;;9.08;67.73;103824.44;5089277;28;20031;-79
2023/02/13 09:36:59;;;;;;;0.30;0.30;;;;;;;9.13;67.81;103824.63;5088461;28;20046;-82
2023/02/13 09:39:25;;;;;;;1.42;0.55;;;;;;;9.21;67.48;103828.44;5086670;28;20405;-82
2023/02/13 09:41:53;;;;;;;0.68;0.68;;;;;;;9.29;68.06;103821.63;5085258;28;20051;-82
2023/02/13 09:44:32;;;;;;;0.10;0.10;;;;;;;9.43;67.78;103826.47;5082687;28;20513;-82
2023/02/13 09:47:36;;;;;;;0.65;0.65;;;;;;;9.58;67.88;103819.03;5079690;28;20047;-80
2023/02/13 09:50:12;;;;;;;0.43;0.43;;;;;;;9.64;67.15;103813.94;5081102;28;20028;-82
2023/02/13 09:52:40;;;;;;;0.25;0.25;;;;;;;9.67;67.17;103819.34;5085239;28;20107;-80
2023/02/13 09:55:18;;;;;;;0.40;0.40;;;;;;;9.80;67.06;103819.72;5092303;28;20105;-80
2023/02/13 09:58:15;;;;;;;3.35;3.05;;;;;;;9.87;66.75;103811.13;5086840;28;20462;-81
2023/02/13 10:00:45;;;;;;;5.00;4.15;;;;;;;9.93;66.71;103807.75;5083038;28;20066;-82
2023/02/13 10:03:34;;;;;;;0.17;0.17;;;;;;;10.04;66.25;103807.22;5092248;28;20391;-81
2023/02/13 10:06:28;;;;;;;0.10;0.10;;;;;;;10.13;66.42;103803.03;5092872;28;20058;-82
2023/02/13 10:09:11;;;;;;;0.22;0.22;;;;;;;10.20;66.03;103805.03;5091145;28;20032;-80
2023/02/13 10:15:10;;;;;;;1.50;1.40;;;;;;;10.34;65.55;103800.13;5103903;27;1190980;-78
2023/02/13 10:17:40;;;;;;;0.73;0.73;;;;;;;10.40;65.91;103802.97;5127667;27;20293;-81
2023/02/13 10:20:28;;;;;;;2.05;1.20;;;;;;;10.51;65.58;103804.16;5126859;27;20062;-82
2023/02/13 10:23:09;;;;;;;4.35;2.83;;;;;;;10.56;65.22;103804.31;5099130;28;20492;-81
2023/02/13 10:25:47;;;;;;;2.60;1.42;;;;;;;10.63;64.85;103790.38;5107302;28;20024;-78
2023/02/13 10:28:25;;;;;;;2.83;2.63;;;;;;;10.69;64.91;103800.22;5107709;28;20036;-80
2023/02/13 10:30:55;;;;;;;0.10;0.10;;;;;;;10.74;64.85;103800.34;5100309;28;20031;-80
2023/02/13 10:33:29;;;;;;;0.20;0.20;;;;;;;10.80;64.92;103784.63;5100057;28;20035;-80
2023/02/13 10:36:04;;;;;;;0.90;0.90;;;;;;;10.88;64.55;103791.03;5103845;28;20032;-79
2023/02/13 10:38:33;;;;;;;0.10;0.10;;;;;;;10.90;64.24;103794.59;5106942;28;20109;-79
2023/02/13 10:55:53;;;;;;;0.40;0.40;;;;;;;11.44;62.79;103784.41;5067917;28;20918;-80
2023/02/13 10:58:30;;;;;;;0.38;0.38;;;;;;;11.46;63.26;103791.59;5060850;28;20047;-81
2023/02/13 11:01:20;;;;;;;2.17;2.05;;;;;;;11.58;63.01;103780.34;5064524;28;20043;-81
2023/02/13 11:03:49;;;;;;;3.20;0.85;;;;;;;11.60;62.70;103783.03;5051626;28;20051;-82
2023/02/13 11:06:17;;;;;;;0.20;0.20;;;;;;;11.68;62.82;103785.88;5057194;28;20794;-82
2023/02/13 11:08:46;;;;;;;0.10;0.10;;;;;;;11.74;61.97;103780.66;5059797;28;20033;-83
2023/02/13 11:11:30;;;;;;;0.30;0.30;;;;;;;11.85;61.63;103776.53;5062618;28;20020;-83
2023/02/13 11:14:08;;;;;;;3.83;0.95;;;;;;;11.90;62.67;103777.50;5043532;28;20075;-83
2023/02/13 11:19:36;;;;;;;0.10;0.10;;;;;;;12.09;62.25;103769.97;5094615;27;20386;-82
2023/02/13 11:22:11;;;;;;;0.13;0.13;;;;;;;12.12;61.52;103767.34;5084833;28;20034;-84
2023/02/13 11:24:41;;;;;;;0.85;0.85;;;;;;;12.20;60.58;103764.84;5087426;28;20020;-83
2023/02/13 11:27:12;;;;;;;0.85;0.85;;;;;;;12.28;60.93;103761.47;5099504;28;20013;-81
2023/02/13 11:29:53;;;;;;;0.25;0.25;;;;;;;12.45;61.51;103756.50;5105624;28;20032;-80
2023/02/13 11:32:24;;;;;;;0.55;0.55;;;;;;;12.52;61.04;103744.19;5090199;28;20059;-81
2023/02/13 11:34:50;;;;;;;0.35;0.35;;;;;;;12.56;59.48;103743.41;5090058;28;20021;-82
2023/02/13 11:37:22;;;;;;;0.85;0.77;;;;;;;12.70;60.38;103745.41;5082945;28;20028;-82
2023/02/13 11:39:51;;;;;;;1.15;1.02;;;;;;;12.71;59.92;103740.13;5088710;28;20101;-80
2023/02/13 11:45:07;;;;;;;0.80;0.80;;;;;;;12.86;59.39;103725.28;5093723;27;1866252;-81
2023/02/13 11:47:40;;;;;;;0.65;0.65;;;;;;;12.92;58.12;103715.63;5142215;28;20015;-81
2023/02/13 11:53:19;;;;;;;0.10;0.10;;;;;;;13.09;58.33;103717.66;5092796;27;1238057;-82
2023/02/13 11:56:00;;;;;;;0.22;0.22;;;;;;;13.09;57.98;103717.66;5123980;28;20531;-82
2023/02/13 11:58:29;;;;;;;0.77;0.77;;;;;;;13.14;57.19;103723.94;5125247;28;20049;-81
2023/02/13 12:04:06;;;;;;;0.20;0.20;;;;;;;13.34;57.26;103715.38;5096890;27;1367280;-80
2023/02/13 12:06:38;;;;;;;0.52;0.52;;;;;;;13.39;57.92;103716.38;5130410;27;20024;-79
2023/02/13 12:09:14;;;;;;;1.27;1.27;;;;;;;13.43;57.76;103718.19;5130623;27;20063;-79
2023/02/13 12:11:51;;;;;;;0.20;0.20;;;;;;;13.50;56.96;103721.84;5117091;28;20042;-80
2023/02/13 12:14:23;;;;;;;0.20;0.20;;;;;;;13.49;56.05;103712.06;5096953;28;20062;-81
2023/02/13 12:16:59;;;;;;;0.50;0.50;;;;;;;13.57;57.25;103707.72;5093017;28;20043;-81
2023/02/13 12:19:34;;;;;;;0.65;0.65;;;;;;;13.63;57.22;103699.81;5091924;28;20036;-82
2023/02/13 12:25:34;;;;;;;1.00;0.95;;;;;;;13.78;54.63;103700.91;5110897;27;20118;-81
2023/02/13 12:28:27;;;;;;;0.40;0.40;;;;;;;13.85;55.79;103702.75;5089412;28;20068;-84
2023/02/13 12:31:08;;;;;;;0.40;0.40;;;;;;;13.88;55.97;103701.03;5090529;28;20083;-84
2023/02/13 12:34:14;;;;;;;0.60;0.60;;;;;;;13.96;54.53;103698.44;5086670;28;20016;-82
2023/02/13 12:39:47;;;;;;;3.35;1.20;;;;;;;14.06;55.17;103695.00;5104472;27;1197316;-83
2023/02/13 12:45:45;;;;;;;0.73;0.73;;;;;;;14.21;55.00;103688.06;5099413;27;1230329;-83
2023/02/13 12:48:39;;;;;;;0.63;0.57;;;;;;;14.26;54.20;103685.44;5121757;28;20043;-86
2023/02/13 12:51:30;;;;;;;0.80;0.80;;;;;;;14.29;53.82;103674.78;5127327;28;20023;-85
2023/02/13 13:08:20;;;;;;;0.38;0.38;;;;;;;14.60;54.19;103661.75;5074862;28;20350;-84
2023/02/13 13:14:02;;;;;;;0.60;0.60;;;;;;;14.63;51.87;103660.00;5108511;27;20380;-85
2023/02/13 13:19:39;;;;;;;0.20;0.20;;;;;;;14.76;52.09;103657.47;5109536;27;1176447;-83
2023/02/13 13:25:02;;;;;;;0.40;0.40;;;;;;;14.85;52.17;103666.44;5097302;27;1221569;-84
2023/02/13 13:27:35;;;;;;;0.22;0.22;;;;;;;14.90;53.04;103654.88;5116956;28;20396;-84
2023/02/13 13:30:05;;;;;;;2.05;1.23;;;;;;;14.90;52.39;103647.75;5132183;28;20511;-85
2023/02/13 13:32:32;;;;;;;0.10;0.10;;;;;;;14.92;51.56;103646.00;5113784;28;20032;-84
2023/02/13 13:34:58;;;;;;;0.43;0.43;;;;;;;14.95;51.71;103642.44;5124076;28;20035;-88
2023/02/13 13:40:29;;;;;;;0.30;0.30;;;;;;;15.11;52.30;103638.09;5090455;27;20436;-84
2023/02/13 13:51:17;;;;;;;0.10;0.10;;;;;;;15.25;52.33;103630.16;5070819;28;20142;-84
2023/02/13 13:57:04;;;;;;;2.45;1.27;;;;;;;15.34;52.06;103616.88;5110220;27;20392;-84
2023/02/13 14:05:32;;;;;;;0.20;0.20;;;;;;;15.33;50.72;103612.41;5046012;27;1427305;-85
2023/02/13 14:08:02;;;;;;;1.88;1.77;;;;;;;15.30;50.75;103605.28;5086976;28;20495;-85
2023/02/13 14:13:27;;;;;;;0.75;0.75;;;;;;;15.28;50.66;103600.81;5079724;27;20446;-88
2023/02/13 14:15:53;;;;;;;3.63;0.80;;;;;;;15.26;49.92;103607.91;5069966;28;20033;-84
2023/02/13 14:18:22;;;;;;;0.77;0.77;;;;;;;15.25;50.33;103595.44;5068714;28;20105;-83
2023/02/13 14:34:25;;;;;;;2.00;1.73;;;;;;;15.19;51.03;103590.97;5105217;27;1192253;-87
2023/02/13 14:40:14;;;;;;;1.10;1.10;;;;;;;15.34;50.74;103598.16;5105859;27;22425;-86